sensor_id;sensor_type;location;lat;lon;timestamp;P1;durP1;ratioP1;P2;durP2;ratioP2
35380;SDS011;21486;51.916;8.378;2023-05-17T00:00:44;9.68;;;4.10;;
35380;SDS011;21486;51.916;8.378;2023-05-17T00:03:10;8.73;;;4.30;;
35380;SDS011;21486;51.916;8.378;2023-05-17T00:05:35;12.73;;;4.03;;
35380;SDS011;21486;51.916;8.378;2023-05-17T00:08:01;10.17;;;4.30;;
35380;SDS011;21486;51.916;8.378;2023-05-17T00:10:26;11.77;;;4.33;;
35380;SDS011;21486;51.916;8.378;2023-05-17T00:12:52;12.32;;;4.75;;
35380;SDS011;21486;51.916;8.378;2023-05-17T00:15:17;10.82;;;4.32;;
35380;SDS011;21486;51.916;8.378;2023-05-17T00:17:43;14.17;;;4.43;;
35380;SDS011;21486;51.916;8.378;2023-05-17T00:20:08;11.70;;;4.53;;
35380;SDS011;21486;51.916;8.378;2023-05-17T00:22:34;10.40;;;4.25;;
35380;SDS011;21486;51.916;8.378;2023-05-17T00:25:00;11.57;;;5.00;;
35380;SDS011;21486;51.916;8.378;2023-05-17T00:27:26;11.60;;;4.37;;
35380;SDS011;21486;51.916;8.378;2023-05-17T00:29:51;11.57;;;4.60;;
35380;SDS011;21486;51.916;8.378;2023-05-17T00:33:01;10.68;;;4.88;;
35380;SDS011;21486;51.916;8.378;2023-05-17T00:35:28;13.57;;;4.53;;
35380;SDS011;21486;51.916;8.378;2023-05-17T00:37:54;11.80;;;4.45;;
35380;SDS011;21486;51.916;8.378;2023-05-17T00:40:19;14.75;;;4.88;;
35380;SDS011;21486;51.916;8.378;2023-05-17T00:42:45;12.35;;;4.45;;
35380;SDS011;21486;51.916;8.378;2023-05-17T00:45:10;14.37;;;4.93;;
35380;SDS011;21486;51.916;8.378;2023-05-17T00:47:36;12.60;;;4.47;;
35380;SDS011;21486;51.916;8.378;2023-05-17T00:50:02;12.53;;;4.47;;
35380;SDS011;21486;51.916;8.378;2023-05-17T00:52:28;13.85;;;4.75;;
35380;SDS011;21486;51.916;8.378;2023-05-17T00:54:53;12.70;;;4.93;;
35380;SDS011;21486;51.916;8.378;2023-05-17T00:57:19;11.90;;;4.90;;
35380;SDS011;21486;51.916;8.378;2023-05-17T00:59:44;13.10;;;4.97;;
35380;SDS011;21486;51.916;8.378;2023-05-17T01:02:11;11.60;;;4.80;;
35380;SDS011;21486;51.916;8.378;2023-05-17T01:04:37;15.98;;;5.50;;
35380;SDS011;21486;51.916;8.378;2023-05-17T01:07:03;13.55;;;4.97;;
35380;SDS011;21486;51.916;8.378;2023-05-17T01:09:29;11.53;;;5.07;;
35380;SDS011;21486;51.916;8.378;2023-05-17T01:17:15;13.52;;;5.18;;
35380;SDS011;21486;51.916;8.378;2023-05-17T01:23:23;13.73;;;5.80;;
35380;SDS011;21486;51.916;8.378;2023-05-17T01:25:56;13.52;;;5.07;;
35380;SDS011;21486;51.916;8.378;2023-05-17T01:28:46;13.55;;;5.32;;
35380;SDS011;21486;51.916;8.378;2023-05-17T01:31:16;15.10;;;5.50;;
35380;SDS011;21486;51.916;8.378;2023-05-17T01:33:43;10.73;;;4.88;;
35380;SDS011;21486;51.916;8.378;2023-05-17T01:36:09;14.40;;;5.63;;
35380;SDS011;21486;51.916;8.378;2023-05-17T01:38:34;12.87;;;5.10;;
35380;SDS011;21486;51.916;8.378;2023-05-17T01:41:00;14.00;;;5.33;;
35380;SDS011;21486;51.916;8.378;2023-05-17T01:43:34;13.63;;;5.57;;
35380;SDS011;21486;51.916;8.378;2023-05-17T01:49:24;16.75;;;5.50;;
35380;SDS011;21486;51.916;8.378;2023-05-17T01:51:56;14.27;;;5.47;;
35380;SDS011;21486;51.916;8.378;2023-05-17T01:54:30;11.77;;;5.60;;
35380;SDS011;21486;51.916;8.378;2023-05-17T01:57:00;19.05;;;5.68;;
35380;SDS011;21486;51.916;8.378;2023-05-17T01:59:30;16.40;;;6.18;;
35380;SDS011;21486;51.916;8.378;2023-05-17T02:01:59;19.30;;;5.95;;
35380;SDS011;21486;51.916;8.378;2023-05-17T02:04:30;16.33;;;5.60;;
35380;SDS011;21486;51.916;8.378;2023-05-17T02:06:56;15.98;;;5.75;;
35380;SDS011;21486;51.916;8.378;2023-05-17T02:09:21;17.40;;;6.17;;
35380;SDS011;21486;51.916;8.378;2023-05-17T02:11:47;15.63;;;5.80;;
35380;SDS011;21486;51.916;8.378;2023-05-17T02:14:12;16.45;;;5.90;;
35380;SDS011;21486;51.916;8.378;2023-05-17T02:16:38;14.60;;;6.10;;
35380;SDS011;21486;51.916;8.378;2023-05-17T02:19:03;16.27;;;6.17;;
35380;SDS011;21486;51.916;8.378;2023-05-17T02:21:29;12.33;;;5.70;;
35380;SDS011;21486;51.916;8.378;2023-05-17T02:23:54;16.67;;;6.05;;
35380;SDS011;21486;51.916;8.378;2023-05-17T02:26:20;18.75;;;6.05;;
35380;SDS011;21486;51.916;8.378;2023-05-17T02:28:45;15.90;;;6.28;;
35380;SDS011;21486;51.916;8.378;2023-05-17T02:31:11;15.07;;;5.93;;
35380;SDS011;21486;51.916;8.378;2023-05-17T02:33:36;16.80;;;6.03;;
35380;SDS011;21486;51.916;8.378;2023-05-17T02:36:02;16.45;;;6.05;;
35380;SDS011;21486;51.916;8.378;2023-05-17T02:38:28;19.77;;;6.72;;
35380;SDS011;21486;51.916;8.378;2023-05-17T02:40:53;14.80;;;6.50;;
35380;SDS011;21486;51.916;8.378;2023-05-17T02:43:19;14.37;;;6.13;;
35380;SDS011;21486;51.916;8.378;2023-05-17T02:45:44;18.13;;;6.23;;
35380;SDS011;21486;51.916;8.378;2023-05-17T02:48:10;15.07;;;5.87;;
35380;SDS011;21486;51.916;8.378;2023-05-17T02:50:35;17.77;;;6.45;;
35380;SDS011;21486;51.916;8.378;2023-05-17T02:53:01;15.65;;;6.18;;
35380;SDS011;21486;51.916;8.378;2023-05-17T02:55:26;18.50;;;6.97;;
35380;SDS011;21486;51.916;8.378;2023-05-17T02:57:52;19.57;;;6.73;;
35380;SDS011;21486;51.916;8.378;2023-05-17T03:00:17;16.77;;;6.60;;
35380;SDS011;21486;51.916;8.378;2023-05-17T03:02:43;20.60;;;6.75;;
35380;SDS011;21486;51.916;8.378;2023-05-17T03:05:09;20.73;;;6.63;;
35380;SDS011;21486;51.916;8.378;2023-05-17T03:07:34;19.00;;;6.18;;
35380;SDS011;21486;51.916;8.378;2023-05-17T03:10:00;15.70;;;6.35;;
35380;SDS011;21486;51.916;8.378;2023-05-17T03:12:26;18.90;;;6.32;;
35380;SDS011;21486;51.916;8.378;2023-05-17T03:14:51;16.67;;;6.17;;
35380;SDS011;21486;51.916;8.378;2023-05-17T03:17:17;20.50;;;7.10;;
35380;SDS011;21486;51.916;8.378;2023-05-17T03:19:42;22.25;;;6.75;;
35380;SDS011;21486;51.916;8.378;2023-05-17T03:22:08;19.88;;;6.70;;
35380;SDS011;21486;51.916;8.378;2023-05-17T03:24:33;18.13;;;6.97;;
35380;SDS011;21486;51.916;8.378;2023-05-17T03:26:59;18.97;;;6.10;;
35380;SDS011;21486;51.916;8.378;2023-05-17T03:29:24;18.50;;;7.03;;
35380;SDS011;21486;51.916;8.378;2023-05-17T03:31:50;20.25;;;6.60;;
35380;SDS011;21486;51.916;8.378;2023-05-17T03:34:15;22.38;;;6.85;;
35380;SDS011;21486;51.916;8.378;2023-05-17T03:36:41;20.53;;;7.00;;
35380;SDS011;21486;51.916;8.378;2023-05-17T03:39:07;25.40;;;7.03;;
35380;SDS011;21486;51.916;8.378;2023-05-17T03:41:32;20.60;;;7.13;;
35380;SDS011;21486;51.916;8.378;2023-05-17T03:43:58;22.10;;;7.07;;
35380;SDS011;21486;51.916;8.378;2023-05-17T03:46:24;20.30;;;6.80;;
35380;SDS011;21486;51.916;8.378;2023-05-17T03:48:49;30.83;;;7.87;;
35380;SDS011;21486;51.916;8.378;2023-05-17T03:51:15;23.73;;;7.30;;
35380;SDS011;21486;51.916;8.378;2023-05-17T03:53:41;17.00;;;6.53;;
35380;SDS011;21486;51.916;8.378;2023-05-17T03:56:07;21.23;;;7.33;;
35380;SDS011;21486;51.916;8.378;2023-05-17T03:58:35;24.05;;;7.45;;
35380;SDS011;21486;51.916;8.378;2023-05-17T04:01:01;24.38;;;7.25;;
35380;SDS011;21486;51.916;8.378;2023-05-17T04:03:28;18.48;;;7.72;;
35380;SDS011;21486;51.916;8.378;2023-05-17T04:05:53;24.08;;;7.78;;
35380;SDS011;21486;51.916;8.378;2023-05-17T04:08:25;22.17;;;7.37;;
35380;SDS011;21486;51.916;8.378;2023-05-17T04:10:50;27.40;;;8.00;;
35380;SDS011;21486;51.916;8.378;2023-05-17T04:13:16;26.93;;;7.87;;
35380;SDS011;21486;51.916;8.378;2023-05-17T04:15:41;28.48;;;8.40;;
35380;SDS011;21486;51.916;8.378;2023-05-17T04:18:07;32.83;;;8.88;;
35380;SDS011;21486;51.916;8.378;2023-05-17T04:20:32;33.67;;;8.70;;
35380;SDS011;21486;51.916;8.378;2023-05-17T04:22:58;28.50;;;8.10;;
35380;SDS011;21486;51.916;8.378;2023-05-17T04:25:24;25.90;;;8.27;;
35380;SDS011;21486;51.916;8.378;2023-05-17T04:27:49;28.80;;;8.87;;
35380;SDS011;21486;51.916;8.378;2023-05-17T04:30:15;37.53;;;9.05;;
35380;SDS011;21486;51.916;8.378;2023-05-17T04:32:40;25.50;;;7.90;;
35380;SDS011;21486;51.916;8.378;2023-05-17T04:35:07;30.35;;;7.72;;
35380;SDS011;21486;51.916;8.378;2023-05-17T04:37:33;32.47;;;8.18;;
35380;SDS011;21486;51.916;8.378;2023-05-17T04:39:58;24.30;;;7.72;;
35380;SDS011;21486;51.916;8.378;2023-05-17T04:42:24;26.85;;;7.72;;
35380;SDS011;21486;51.916;8.378;2023-05-17T04:44:50;29.40;;;6.70;;
35380;SDS011;21486;51.916;8.378;2023-05-17T04:47:15;21.37;;;6.80;;
35380;SDS011;21486;51.916;8.378;2023-05-17T04:49:41;33.90;;;7.43;;
35380;SDS011;21486;51.916;8.378;2023-05-17T04:52:07;24.77;;;6.47;;
35380;SDS011;21486;51.916;8.378;2023-05-17T04:54:33;26.45;;;6.25;;
35380;SDS011;21486;51.916;8.378;2023-05-17T04:56:58;23.50;;;6.13;;
35380;SDS011;21486;51.916;8.378;2023-05-17T04:59:24;23.25;;;6.53;;
35380;SDS011;21486;51.916;8.378;2023-05-17T05:01:49;24.90;;;6.43;;
35380;SDS011;21486;51.916;8.378;2023-05-17T05:04:15;32.85;;;7.65;;
35380;SDS011;21486;51.916;8.378;2023-05-17T05:06:40;31.03;;;7.60;;
35380;SDS011;21486;51.916;8.378;2023-05-17T05:09:06;23.83;;;7.20;;
35380;SDS011;21486;51.916;8.378;2023-05-17T05:11:31;25.42;;;6.90;;
35380;SDS011;21486;51.916;8.378;2023-05-17T05:13:57;33.72;;;6.80;;
35380;SDS011;21486;51.916;8.378;2023-05-17T05:16:23;24.52;;;6.75;;
35380;SDS011;21486;51.916;8.378;2023-05-17T05:18:48;30.88;;;7.38;;
35380;SDS011;21486;51.916;8.378;2023-05-17T05:21:14;29.47;;;7.50;;
35380;SDS011;21486;51.916;8.378;2023-05-17T05:23:39;25.77;;;7.17;;
35380;SDS011;21486;51.916;8.378;2023-05-17T05:26:05;27.60;;;7.05;;
35380;SDS011;21486;51.916;8.378;2023-05-17T05:28:32;28.42;;;8.32;;
35380;SDS011;21486;51.916;8.378;2023-05-17T05:30:58;31.95;;;8.55;;
35380;SDS011;21486;51.916;8.378;2023-05-17T05:33:24;40.13;;;7.57;;
35380;SDS011;21486;51.916;8.378;2023-05-17T05:35:50;34.53;;;7.85;;
35380;SDS011;21486;51.916;8.378;2023-05-17T05:38:16;32.85;;;7.15;;
35380;SDS011;21486;51.916;8.378;2023-05-17T05:40:42;36.75;;;8.00;;
35380;SDS011;21486;51.916;8.378;2023-05-17T05:43:09;32.78;;;7.75;;
35380;SDS011;21486;51.916;8.378;2023-05-17T05:45:35;22.43;;;6.50;;
35380;SDS011;21486;51.916;8.378;2023-05-17T05:48:00;27.47;;;7.17;;
35380;SDS011;21486;51.916;8.378;2023-05-17T05:50:28;27.48;;;6.75;;
35380;SDS011;21486;51.916;8.378;2023-05-17T05:52:53;25.87;;;6.90;;
35380;SDS011;21486;51.916;8.378;2023-05-17T05:55:20;26.08;;;6.28;;
35380;SDS011;21486;51.916;8.378;2023-05-17T05:57:46;23.47;;;6.10;;
35380;SDS011;21486;51.916;8.378;2023-05-17T06:00:11;27.23;;;6.87;;
35380;SDS011;21486;51.916;8.378;2023-05-17T06:02:37;28.08;;;7.28;;
35380;SDS011;21486;51.916;8.378;2023-05-17T06:05:03;26.03;;;6.97;;
35380;SDS011;21486;51.916;8.378;2023-05-17T06:07:29;27.13;;;7.15;;
35380;SDS011;21486;51.916;8.378;2023-05-17T06:09:55;27.17;;;6.67;;
35380;SDS011;21486;51.916;8.378;2023-05-17T06:12:20;30.60;;;6.23;;
35380;SDS011;21486;51.916;8.378;2023-05-17T06:14:46;30.42;;;6.78;;
35380;SDS011;21486;51.916;8.378;2023-05-17T06:17:11;26.98;;;6.93;;
35380;SDS011;21486;51.916;8.378;2023-05-17T06:19:37;22.97;;;6.07;;
35380;SDS011;21486;51.916;8.378;2023-05-17T06:22:03;25.53;;;6.43;;
35380;SDS011;21486;51.916;8.378;2023-05-17T06:24:28;25.50;;;5.05;;
35380;SDS011;21486;51.916;8.378;2023-05-17T06:26:54;26.45;;;5.38;;
35380;SDS011;21486;51.916;8.378;2023-05-17T06:29:19;19.37;;;5.07;;
35380;SDS011;21486;51.916;8.378;2023-05-17T06:31:45;25.53;;;5.30;;
35380;SDS011;21486;51.916;8.378;2023-05-17T06:34:12;19.70;;;4.63;;
35380;SDS011;21486;51.916;8.378;2023-05-17T06:36:37;24.17;;;4.50;;
35380;SDS011;21486;51.916;8.378;2023-05-17T06:39:03;18.57;;;4.50;;
35380;SDS011;21486;51.916;8.378;2023-05-17T06:41:28;19.25;;;4.20;;
35380;SDS011;21486;51.916;8.378;2023-05-17T06:43:54;19.50;;;4.32;;
35380;SDS011;21486;51.916;8.378;2023-05-17T06:46:19;14.17;;;3.50;;
35380;SDS011;21486;51.916;8.378;2023-05-17T06:48:45;19.63;;;3.67;;
35380;SDS011;21486;51.916;8.378;2023-05-17T06:51:10;14.90;;;3.80;;
35380;SDS011;21486;51.916;8.378;2023-05-17T06:53:36;15.20;;;3.67;;
35380;SDS011;21486;51.916;8.378;2023-05-17T06:56:01;19.83;;;4.33;;
35380;SDS011;21486;51.916;8.378;2023-05-17T06:58:27;18.87;;;4.07;;
35380;SDS011;21486;51.916;8.378;2023-05-17T07:00:53;21.00;;;3.97;;
35380;SDS011;21486;51.916;8.378;2023-05-17T07:03:18;24.07;;;4.00;;
35380;SDS011;21486;51.916;8.378;2023-05-17T07:05:44;19.17;;;4.60;;
35380;SDS011;21486;51.916;8.378;2023-05-17T07:08:10;21.63;;;4.87;;
35380;SDS011;21486;51.916;8.378;2023-05-17T07:10:35;28.17;;;5.53;;
35380;SDS011;21486;51.916;8.378;2023-05-17T07:13:01;17.77;;;4.30;;
35380;SDS011;21486;51.916;8.378;2023-05-17T07:15:26;20.40;;;4.68;;
35380;SDS011;21486;51.916;8.378;2023-05-17T07:17:52;19.77;;;3.90;;
35380;SDS011;21486;51.916;8.378;2023-05-17T07:20:17;13.15;;;2.95;;
35380;SDS011;21486;51.916;8.378;2023-05-17T07:22:43;22.77;;;4.45;;
35380;SDS011;21486;51.916;8.378;2023-05-17T07:25:09;21.03;;;3.60;;
35380;SDS011;21486;51.916;8.378;2023-05-17T07:27:34;20.10;;;3.97;;
35380;SDS011;21486;51.916;8.378;2023-05-17T07:30:00;22.30;;;4.30;;
35380;SDS011;21486;51.916;8.378;2023-05-17T07:32:27;15.88;;;3.67;;
35380;SDS011;21486;51.916;8.378;2023-05-17T07:34:52;21.80;;;3.67;;
35380;SDS011;21486;51.916;8.378;2023-05-17T07:37:18;18.67;;;3.70;;
35380;SDS011;21486;51.916;8.378;2023-05-17T07:39:44;21.57;;;3.87;;
35380;SDS011;21486;51.916;8.378;2023-05-17T07:42:09;20.37;;;4.20;;
35380;SDS011;21486;51.916;8.378;2023-05-17T07:44:35;21.23;;;3.78;;
35380;SDS011;21486;51.916;8.378;2023-05-17T07:47:00;19.90;;;4.10;;
35380;SDS011;21486;51.916;8.378;2023-05-17T07:49:26;19.20;;;3.90;;
35380;SDS011;21486;51.916;8.378;2023-05-17T07:51:51;14.15;;;3.60;;
35380;SDS011;21486;51.916;8.378;2023-05-17T07:54:23;19.85;;;3.47;;
35380;SDS011;21486;51.916;8.378;2023-05-17T07:56:52;20.67;;;3.90;;
35380;SDS011;21486;51.916;8.378;2023-05-17T07:59:19;15.32;;;3.05;;
35380;SDS011;21486;51.916;8.378;2023-05-17T08:01:45;16.60;;;3.03;;
35380;SDS011;21486;51.916;8.378;2023-05-17T08:04:11;18.55;;;3.17;;
35380;SDS011;21486;51.916;8.378;2023-05-17T08:06:38;14.37;;;2.73;;
35380;SDS011;21486;51.916;8.378;2023-05-17T08:09:04;10.98;;;2.50;;
35380;SDS011;21486;51.916;8.378;2023-05-17T08:11:30;13.30;;;2.50;;
35380;SDS011;21486;51.916;8.378;2023-05-17T08:13:58;14.40;;;2.70;;
35380;SDS011;21486;51.916;8.378;2023-05-17T08:16:24;12.45;;;3.05;;
35380;SDS011;21486;51.916;8.378;2023-05-17T08:18:49;10.60;;;2.45;;
35380;SDS011;21486;51.916;8.378;2023-05-17T08:21:15;14.57;;;3.43;;
35380;SDS011;21486;51.916;8.378;2023-05-17T08:23:42;21.13;;;7.03;;
35380;SDS011;21486;51.916;8.378;2023-05-17T08:26:07;14.70;;;2.80;;
35380;SDS011;21486;51.916;8.378;2023-05-17T08:28:33;12.77;;;2.70;;
35380;SDS011;21486;51.916;8.378;2023-05-17T08:30:58;19.00;;;4.93;;
35380;SDS011;21486;51.916;8.378;2023-05-17T08:33:24;16.00;;;2.90;;
35380;SDS011;21486;51.916;8.378;2023-05-17T08:35:51;16.42;;;3.25;;
35380;SDS011;21486;51.916;8.378;2023-05-17T08:38:19;11.03;;;2.20;;
35380;SDS011;21486;51.916;8.378;2023-05-17T08:40:51;17.45;;;2.42;;
35380;SDS011;21486;51.916;8.378;2023-05-17T08:43:19;11.68;;;2.35;;
35380;SDS011;21486;51.916;8.378;2023-05-17T08:45:46;12.93;;;2.15;;
35380;SDS011;21486;51.916;8.378;2023-05-17T08:48:13;12.73;;;2.17;;
35380;SDS011;21486;51.916;8.378;2023-05-17T08:50:41;11.20;;;2.47;;
35380;SDS011;21486;51.916;8.378;2023-05-17T08:53:08;11.27;;;3.35;;
35380;SDS011;21486;51.916;8.378;2023-05-17T08:55:35;12.80;;;2.65;;
35380;SDS011;21486;51.916;8.378;2023-05-17T08:58:02;7.38;;;2.22;;
35380;SDS011;21486;51.916;8.378;2023-05-17T09:00:29;12.38;;;2.70;;
35380;SDS011;21486;51.916;8.378;2023-05-17T09:02:57;8.00;;;2.20;;
35380;SDS011;21486;51.916;8.378;2023-05-17T09:05:24;10.23;;;2.15;;
35380;SDS011;21486;51.916;8.378;2023-05-17T09:07:50;8.90;;;1.50;;
35380;SDS011;21486;51.916;8.378;2023-05-17T09:10:17;10.75;;;1.90;;
35380;SDS011;21486;51.916;8.378;2023-05-17T09:12:43;8.90;;;2.05;;
35380;SDS011;21486;51.916;8.378;2023-05-17T09:15:12;9.10;;;2.15;;
35380;SDS011;21486;51.916;8.378;2023-05-17T09:17:40;7.07;;;1.85;;
35380;SDS011;21486;51.916;8.378;2023-05-17T09:20:07;9.87;;;1.90;;
35380;SDS011;21486;51.916;8.378;2023-05-17T09:22:33;10.35;;;2.13;;
35380;SDS011;21486;51.916;8.378;2023-05-17T09:25:01;10.00;;;2.00;;
35380;SDS011;21486;51.916;8.378;2023-05-17T09:27:29;9.55;;;2.08;;
35380;SDS011;21486;51.916;8.378;2023-05-17T09:29:55;10.27;;;2.33;;
35380;SDS011;21486;51.916;8.378;2023-05-17T09:32:22;9.87;;;2.40;;
35380;SDS011;21486;51.916;8.378;2023-05-17T09:34:49;12.00;;;2.50;;
35380;SDS011;21486;51.916;8.378;2023-05-17T09:37:20;12.63;;;2.55;;
35380;SDS011;21486;51.916;8.378;2023-05-17T09:39:47;12.82;;;2.30;;
35380;SDS011;21486;51.916;8.378;2023-05-17T09:42:13;11.55;;;2.60;;
35380;SDS011;21486;51.916;8.378;2023-05-17T09:44:47;8.25;;;2.13;;
35380;SDS011;21486;51.916;8.378;2023-05-17T09:47:21;11.57;;;2.50;;
35380;SDS011;21486;51.916;8.378;2023-05-17T09:49:57;11.43;;;2.47;;
35380;SDS011;21486;51.916;8.378;2023-05-17T09:52:34;10.57;;;2.22;;
35380;SDS011;21486;51.916;8.378;2023-05-17T09:55:00;13.77;;;2.50;;
35380;SDS011;21486;51.916;8.378;2023-05-17T09:57:27;12.35;;;2.35;;
35380;SDS011;21486;51.916;8.378;2023-05-17T10:00:00;12.23;;;2.78;;
35380;SDS011;21486;51.916;8.378;2023-05-17T10:04:56;10.20;;;2.40;;
35380;SDS011;21486;51.916;8.378;2023-05-17T10:07:25;10.35;;;2.65;;
35380;SDS011;21486;51.916;8.378;2023-05-17T10:09:52;14.45;;;2.47;;
35380;SDS011;21486;51.916;8.378;2023-05-17T10:12:23;16.75;;;2.60;;
35380;SDS011;21486;51.916;8.378;2023-05-17T10:14:52;11.70;;;2.72;;
35380;SDS011;21486;51.916;8.378;2023-05-17T10:17:20;10.05;;;2.60;;
35380;SDS011;21486;51.916;8.378;2023-05-17T10:19:47;18.55;;;2.97;;
35380;SDS011;21486;51.916;8.378;2023-05-17T10:22:13;11.07;;;2.30;;
35380;SDS011;21486;51.916;8.378;2023-05-17T10:24:42;11.45;;;2.20;;
35380;SDS011;21486;51.916;8.378;2023-05-17T10:27:08;7.97;;;2.00;;
35380;SDS011;21486;51.916;8.378;2023-05-17T10:29:34;12.52;;;2.45;;
35380;SDS011;21486;51.916;8.378;2023-05-17T10:32:02;10.90;;;2.22;;
